Annandale, Pennsylvania
Current Conditions -  °F | °C
As of 3:35 PM on Thursday 20 Nov 2014 (Local Time) from KFKL Reporting Station
Overcast Overcast  
Wind Chill:   Ceiling: 5000
Heat Index: 23°   Visibility: 10mi
Dew Point:   Wind: 18mph
Humidity: 54%   Direction: 230°SW
Pressure: 29.94"   Gusts: 24mph
Location:  41.1142°N, 79.9031°W
Report Text: KFKL 202035Z 23016G21KT 10SM SCT042 OVC050 M05/M13 A2994 RMK AO1
Loading
Personal Weather Stations






























Interactive Weather Map New forecast layout! Learn more

10-Day Weather Forecast

Advertisements
Track Severe Weather on mobile